Time;durP1;ratioP1;P1;durP2;ratioP2;P2;SDS_P1;SDS_P2;PMS_P1;PMS_P2;Temp;Humidity;BMP_temperature;BMP_pressure;BME280_temperature;BME280_humidity;BME280_pressure;Samples;Min_cycle;Max_cycle;Signal;HPM_P1;HPM_P2
2021/03/20 00:01:45;;;;;;;17.70;9.77;;;;;;;6.00;49.32;94521.28;5011101;28;20177;-72
2021/03/20 00:04:11;;;;;;;14.50;8.97;;;;;;;5.87;49.91;94519.66;5012166;28;20811;-72
2021/03/20 00:06:42;;;;;;;14.67;9.40;;;;;;;5.86;49.55;94521.53;5012413;28;20165;-72
2021/03/20 00:09:09;;;;;;;14.27;8.33;;;;;;;5.92;49.05;94528.19;4994780;28;20176;-72
2021/03/20 00:11:35;;;;;;;13.27;8.97;;;;;;;5.92;49.18;94522.91;5012733;28;20783;-72
2021/03/20 00:14:00;;;;;;;14.27;7.87;;;;;;;5.76;49.84;94529.84;5009775;28;20472;-72
2021/03/20 00:16:26;;;;;;;19.20;9.13;;;;;;;5.87;49.69;94540.84;5010841;28;20251;-71
2021/03/20 00:18:52;;;;;;;16.73;8.60;;;;;;;5.89;49.28;94543.94;5011907;28;20173;-72
2021/03/20 00:21:18;;;;;;;15.40;8.77;;;;;;;5.72;49.81;94542.19;5012158;28;20260;-71
2021/03/20 00:23:43;;;;;;;13.87;8.67;;;;;;;5.78;50.00;94541.69;5011968;28;20235;-72
2021/03/20 00:26:09;;;;;;;14.43;8.60;;;;;;;5.83;50.20;94536.19;5011665;28;20511;-72
2021/03/20 00:28:36;;;;;;;14.93;8.17;;;;;;;5.78;50.61;94543.53;5011915;28;20216;-72
2021/03/20 00:31:04;;;;;;;14.50;8.10;;;;;;;5.92;49.47;94540.69;5010500;28;20611;-72
2021/03/20 00:33:30;;;;;;;15.33;9.77;;;;;;;5.73;51.36;94539.22;5011869;28;20472;-72
2021/03/20 00:35:55;;;;;;;17.30;8.77;;;;;;;5.83;51.10;94536.19;5010469;28;20428;-72
2021/03/20 00:38:22;;;;;;;20.77;8.90;;;;;;;5.86;51.09;94539.28;5011789;28;20283;-71
2021/03/20 00:40:47;;;;;;;16.83;9.00;;;;;;;5.70;50.87;94531.13;5011664;28;20177;-72
2021/03/20 00:43:13;;;;;;;15.97;9.57;;;;;;;5.95;50.80;94522.28;5011859;28;20419;-71
2021/03/20 00:45:38;;;;;;;17.73;10.27;;;;;;;5.97;50.03;94514.00;5009837;28;20193;-72
2021/03/20 00:48:16;;;;;;;16.70;9.97;;;;;;;5.86;51.14;94523.41;5011719;28;20663;-71
2021/03/20 00:50:42;;;;;;;15.47;9.23;;;;;;;5.64;51.33;94521.84;5011485;28;20172;-72
2021/03/20 00:53:07;;;;;;;18.47;10.03;;;;;;;5.79;51.01;94524.69;5010343;28;20567;-72
2021/03/20 00:55:33;;;;;;;14.77;9.43;;;;;;;5.80;51.44;94523.59;5011736;28;20259;-72
2021/03/20 00:57:58;;;;;;;20.07;10.67;;;;;;;5.90;50.67;94517.13;5010218;28;20576;-72
2021/03/20 01:00:25;;;;;;;17.87;10.50;;;;;;;5.81;51.23;94529.66;5010418;28;20227;-72
2021/03/20 01:02:51;;;;;;;18.73;9.53;;;;;;;5.91;51.17;94521.34;5011430;28;20176;-72
2021/03/20 01:05:17;;;;;;;19.33;10.20;;;;;;;5.86;51.42;94523.41;5009678;28;20420;-72
2021/03/20 01:07:42;;;;;;;20.87;10.53;;;;;;;5.97;51.27;94524.59;5011394;28;20173;-72
2021/03/20 01:10:10;;;;;;;21.73;11.50;;;;;;;5.95;51.25;94522.28;4993389;28;20188;-72
2021/03/20 01:12:35;;;;;;;18.27;10.17;;;;;;;5.98;51.58;94526.13;5009692;28;20217;-72
2021/03/20 01:15:01;;;;;;;20.13;11.07;;;;;;;5.79;51.61;94529.22;5011397;28;20423;-71
2021/03/20 01:17:26;;;;;;;23.60;11.03;;;;;;;5.52;53.16;94525.94;5011338;28;20177;-72
2021/03/20 01:19:52;;;;;;;16.03;10.10;;;;;;;5.36;53.29;94509.06;5011468;28;20165;-72
2021/03/20 01:22:17;;;;;;;19.67;11.13;;;;;;;5.48;53.63;94524.25;5011512;28;20169;-72
2021/03/20 01:24:43;;;;;;;18.47;10.80;;;;;;;5.40;54.04;94523.22;5011251;28;20200;-72
2021/03/20 01:27:08;;;;;;;21.57;11.87;;;;;;;5.49;54.68;94517.88;5010101;28;20177;-72
2021/03/20 01:29:34;;;;;;;18.20;9.93;;;;;;;5.67;53.17;94521.16;5011174;28;20212;-72
2021/03/20 01:31:59;;;;;;;19.30;11.00;;;;;;;5.42;54.11;94522.91;5011257;28;20546;-72
2021/03/20 01:34:25;;;;;;;18.60;10.97;;;;;;;5.39;53.94;94529.63;5011138;28;20209;-72
2021/03/20 01:36:50;;;;;;;17.93;9.73;;;;;;;5.18;54.68;94518.97;5011343;28;20560;-72
2021/03/20 01:39:16;;;;;;;21.07;10.87;;;;;;;5.16;54.50;94528.31;5011028;28;20180;-72
2021/03/20 01:41:42;;;;;;;18.73;10.53;;;;;;;5.17;53.47;94532.53;5011287;28;20176;-72
2021/03/20 01:44:17;;;;;;;25.57;11.37;;;;;;;5.34;53.08;94534.31;5011257;28;20271;-73
2021/03/20 01:46:50;;;;;;;18.60;10.60;;;;;;;5.47;53.04;94536.72;5009960;28;20423;-72
2021/03/20 01:49:24;;;;;;;21.10;10.47;;;;;;;5.63;53.95;94538.81;5011064;28;20474;-72
2021/03/20 01:51:57;;;;;;;17.13;9.67;;;;;;;5.60;53.84;94539.47;5010004;28;20467;-72
2021/03/20 01:54:25;;;;;;;19.60;10.43;;;;;;;5.57;53.82;94532.94;5009646;28;20573;-73
2021/03/20 01:56:51;;;;;;;26.88;13.38;;;;;;;5.24;54.33;94538.09;4977579;28;20428;-72
2021/03/20 01:59:16;;;;;;;26.33;13.53;;;;;;;5.28;55.14;94544.31;5010759;28;20665;-73
2021/03/20 02:01:42;;;;;;;26.80;13.97;;;;;;;5.49;52.72;94539.06;5013135;28;20311;-73
2021/03/20 02:04:07;;;;;;;30.63;15.07;;;;;;;5.47;53.11;94541.25;5014580;28;20181;-72
2021/03/20 02:06:33;;;;;;;28.93;14.33;;;;;;;5.29;52.44;94540.56;5014490;28;20259;-73
2021/03/20 02:08:59;;;;;;;29.77;14.80;;;;;;;5.22;53.49;94537.66;5014555;28;20246;-72
2021/03/20 02:11:27;;;;;;;31.02;15.50;;;;;;;5.24;53.76;94541.53;5013124;28;20611;-73
2021/03/20 02:14:17;;;;;;;23.83;13.52;;;;;;;5.38;53.25;94537.88;5012981;28;20751;-72
2021/03/20 02:17:04;;;;;;;27.80;12.80;;;;;;;5.36;54.07;94543.50;5013256;28;20169;-72
2021/03/20 02:20:03;;;;;;;26.87;14.13;;;;;;;5.48;53.08;94535.63;5014096;28;20422;-72
2021/03/20 02:22:29;;;;;;;23.30;12.63;;;;;;;5.19;54.92;94533.00;5014063;28;20422;-72
2021/03/20 02:25:22;;;;;;;22.63;12.20;;;;;;;5.03;56.82;94532.75;5014050;28;20507;-72
2021/03/20 02:28:18;;;;;;;24.80;11.83;;;;;;;5.14;57.02;94541.09;5012811;28;20235;-72
2021/03/20 02:31:15;;;;;;;21.25;11.05;;;;;;;5.28;55.07;94539.03;5013911;28;20427;-72
2021/03/20 02:33:47;;;;;;;21.87;10.93;;;;;;;5.42;55.57;94541.44;5013063;28;20200;-72
2021/03/20 02:36:25;;;;;;;22.80;12.87;;;;;;;5.51;55.13;94548.25;5028974;28;20869;-72
2021/03/20 02:38:53;;;;;;;24.20;12.47;;;;;;;5.53;55.81;94545.25;5012740;28;20926;-72
2021/03/20 02:41:48;;;;;;;23.63;12.47;;;;;;;5.56;55.21;94545.41;4996134;28;20424;-72
2021/03/20 02:44:50;;;;;;;19.37;11.50;;;;;;;5.62;55.21;94551.31;5012671;28;20432;-72
2021/03/20 02:47:21;;;;;;;24.20;13.23;;;;;;;5.58;54.98;94539.78;5012026;28;20444;-72
2021/03/20 02:50:03;;;;;;;20.67;12.20;;;;;;;5.70;54.94;94542.50;4996377;28;20408;-72
2021/03/20 02:53:00;;;;;;;24.50;12.02;;;;;;;5.49;56.00;94542.47;5012530;28;20491;-71
2021/03/20 02:55:38;;;;;;;22.07;11.70;;;;;;;5.45;56.65;94536.28;4918024;29;20239;-72
2021/03/20 02:58:19;;;;;;;23.57;12.33;;;;;;;5.43;56.36;94541.09;4918652;29;21010;-72
2021/03/20 03:00:55;;;;;;;21.43;11.43;;;;;;;5.34;57.27;94545.69;4904127;29;20446;-72
2021/03/20 03:03:22;;;;;;;21.95;11.95;;;;;;;5.39;56.78;94545.50;4918221;29;20424;-72
2021/03/20 03:06:12;;;;;;;24.02;12.95;;;;;;;5.43;56.40;94541.09;4918201;29;20187;-72
2021/03/20 03:08:42;;;;;;;22.10;11.90;;;;;;;5.31;57.08;94546.31;4919994;29;20659;-71
2021/03/20 03:11:13;;;;;;;22.63;12.52;;;;;;;5.43;57.36;94540.34;4917803;29;20543;-72
2021/03/20 03:13:41;;;;;;;21.80;12.17;;;;;;;5.45;56.47;94525.69;4917832;29;20254;-71
2021/03/20 03:16:18;;;;;;;21.13;12.40;;;;;;;5.48;56.82;94545.44;4918014;29;20455;-71
2021/03/20 03:18:47;;;;;;;21.67;12.43;;;;;;;5.48;56.27;94545.44;4902383;29;20194;-71
2021/03/20 03:21:13;;;;;;;22.30;12.67;;;;;;;5.40;58.08;94547.06;4917854;29;20416;-71
2021/03/20 03:23:39;;;;;;;23.30;12.93;;;;;;;5.40;57.15;94547.06;4917759;29;20432;-72
2021/03/20 03:26:17;;;;;;;24.93;12.60;;;;;;;5.38;57.05;94549.22;4901973;29;20556;-73
2021/03/20 03:28:51;;;;;;;21.23;12.80;;;;;;;5.37;57.26;94539.75;4902460;29;21014;-71
2021/03/20 03:31:46;;;;;;;20.00;12.03;;;;;;;5.35;57.49;94547.25;4942709;28;20951;-74
2021/03/20 03:34:21;;;;;;;21.90;11.67;;;;;;;5.34;57.42;94543.03;5028192;28;20446;-71
2021/03/20 03:37:01;;;;;;;18.67;11.57;;;;;;;4.89;59.20;94550.72;4995606;28;20466;-71
2021/03/20 03:39:48;;;;;;;25.33;13.13;;;;;;;5.01;58.74;94553.47;5011646;28;20791;-71
2021/03/20 03:42:14;;;;;;;21.48;12.70;;;;;;;5.10;58.29;94556.84;5012625;28;20710;-71
2021/03/20 03:44:44;;;;;;;26.23;13.50;;;;;;;5.22;57.97;94554.31;4995066;28;20648;-72
2021/03/20 03:47:19;;;;;;;23.30;12.27;;;;;;;5.15;58.80;94553.25;5010840;28;20738;-72
2021/03/20 03:49:44;;;;;;;19.67;11.50;;;;;;;5.22;58.52;94550.91;5011133;28;20168;-71
2021/03/20 03:52:11;;;;;;;21.83;11.83;;;;;;;5.33;57.56;94552.06;5011415;28;20200;-71
2021/03/20 03:54:37;;;;;;;21.08;12.55;;;;;;;5.28;58.12;94547.75;5012320;28;20738;-71
2021/03/20 03:57:24;;;;;;;21.80;12.10;;;;;;;5.18;58.44;94547.31;5010932;28;20181;-71
2021/03/20 03:59:54;;;;;;;18.85;11.13;;;;;;;5.31;57.44;94551.63;5012193;28;20176;-71
2021/03/20 04:02:50;;;;;;;18.83;10.83;;;;;;;5.31;56.78;94546.31;5027716;28;20255;-71
2021/03/20 04:05:24;;;;;;;19.67;11.73;;;;;;;5.16;56.77;94539.72;5010827;28;20474;-72
2021/03/20 04:07:55;;;;;;;17.40;10.90;;;;;;;5.15;57.65;94543.44;5011171;28;20169;-72
2021/03/20 04:10:29;;;;;;;21.75;11.98;;;;;;;5.35;56.80;94555.19;5026945;28;20188;-71
2021/03/20 04:13:13;;;;;;;25.33;13.13;;;;;;;5.18;57.28;94545.44;5010894;28;20212;-71
2021/03/20 04:15:55;;;;;;;16.33;9.98;;;;;;;4.80;57.19;94540.16;5012164;28;20181;-71
2021/03/20 04:18:26;;;;;;;23.10;12.45;;;;;;;4.99;58.31;94539.75;5010811;28;20172;-71
2021/03/20 04:21:19;;;;;;;22.48;11.50;;;;;;;5.12;57.76;94545.94;4995087;28;20173;-71
2021/03/20 04:24:05;;;;;;;19.65;12.00;;;;;;;5.09;57.85;94550.00;5010383;28;20173;-71
2021/03/20 04:26:45;;;;;;;21.75;12.38;;;;;;;4.98;58.20;94549.56;5011240;28;20185;-72
2021/03/20 04:29:20;;;;;;;22.60;12.38;;;;;;;5.03;57.66;94548.63;5010899;28;20176;-72
2021/03/20 04:31:54;;;;;;;23.00;13.07;;;;;;;5.07;57.09;94543.47;5027053;28;20184;-71
2021/03/20 04:34:33;;;;;;;25.40;14.05;;;;;;;4.72;58.20;94551.53;5010626;28;20938;-71
2021/03/20 04:37:07;;;;;;;30.13;15.27;;;;;;;4.68;58.96;94563.84;5010598;28;20173;-71
2021/03/20 04:39:35;;;;;;;30.93;14.17;;;;;;;4.91;57.87;94548.50;4978317;28;20802;-71
2021/03/20 04:42:01;;;;;;;32.17;14.90;;;;;;;5.06;57.70;94548.00;4993768;28;20436;-71
2021/03/20 04:44:27;;;;;;;34.60;16.73;;;;;;;5.10;56.99;94527.72;5026960;28;20789;-71
2021/03/20 04:46:52;;;;;;;31.33;16.20;;;;;;;5.21;57.05;94547.44;4994088;28;20177;-71
2021/03/20 04:49:32;;;;;;;32.37;17.33;;;;;;;5.30;56.43;94542.91;5011708;28;20615;-71
2021/03/20 04:52:10;;;;;;;29.20;15.10;;;;;;;5.16;58.58;94550.28;5010464;28;20185;-71
2021/03/20 04:54:35;;;;;;;27.85;13.88;;;;;;;5.22;58.62;94543.72;4995355;28;20517;-71
2021/03/20 04:57:29;;;;;;;22.27;13.70;;;;;;;5.40;58.12;94544.41;5011400;28;20177;-71
2021/03/20 05:00:09;;;;;;;24.70;14.27;;;;;;;5.43;57.86;94537.69;5026813;28;20177;-71
2021/03/20 05:02:58;;;;;;;26.13;14.03;;;;;;;5.42;57.91;94542.22;5010513;28;20798;-71
2021/03/20 05:05:47;;;;;;;24.60;13.40;;;;;;;5.36;57.83;94545.38;5011485;28;20502;-71
2021/03/20 05:08:14;;;;;;;22.67;11.83;;;;;;;5.30;58.63;94550.84;5011435;28;20452;-71
2021/03/20 05:10:54;;;;;;;22.95;12.50;;;;;;;4.81;60.21;94549.63;5010275;28;20428;-71
2021/03/20 05:13:39;;;;;;;22.52;11.77;;;;;;;5.01;59.35;94551.59;4994235;28;20239;-71
2021/03/20 05:16:16;;;;;;;21.98;13.23;;;;;;;5.06;58.66;94555.16;5010329;28;20169;-71
2021/03/20 05:18:46;;;;;;;22.95;12.40;;;;;;;4.64;60.34;94553.09;5011014;28;20200;-72
2021/03/20 05:21:15;;;;;;;22.60;13.35;;;;;;;4.38;61.71;94558.44;5011455;28;20239;-72
2021/03/20 05:23:41;;;;;;;24.85;13.63;;;;;;;4.75;60.49;94550.91;5011070;28;20632;-71
2021/03/20 05:26:06;;;;;;;21.50;12.83;;;;;;;4.99;59.43;94553.00;5010276;28;20192;-71
2021/03/20 05:28:32;;;;;;;26.80;13.80;;;;;;;5.09;59.07;94552.63;5010858;28;20181;-72
2021/03/20 05:31:00;;;;;;;23.70;12.93;;;;;;;5.18;59.60;94557.91;5010991;28;20177;-72
2021/03/20 05:33:26;;;;;;;22.40;12.68;;;;;;;5.10;59.51;94558.72;5010871;28;20771;-71
2021/03/20 05:35:51;;;;;;;22.83;13.27;;;;;;;5.12;59.13;94559.97;5013507;28;20177;-71
2021/03/20 05:38:16;;;;;;;25.47;14.03;;;;;;;5.18;58.93;94557.91;5015066;28;20546;-71
2021/03/20 05:40:42;;;;;;;25.63;14.27;;;;;;;5.18;59.25;94561.34;5014728;28;20176;-71
2021/03/20 05:43:35;;;;;;;27.63;14.73;;;;;;;5.19;59.17;94559.47;5015052;28;20251;-72
2021/03/20 05:46:29;;;;;;;29.02;13.55;;;;;;;5.23;59.20;94563.81;5014738;28;20604;-71
2021/03/20 05:49:05;;;;;;;25.30;13.50;;;;;;;5.35;58.24;94557.81;5014718;28;20177;-72
2021/03/20 05:51:48;;;;;;;26.00;13.17;;;;;;;5.35;58.59;94563.13;5013595;28;20419;-71
2021/03/20 05:54:52;;;;;;;21.47;13.10;;;;;;;5.35;58.42;94563.13;5013049;28;20479;-72
2021/03/20 05:57:36;;;;;;;26.10;14.73;;;;;;;5.43;58.25;94564.94;5013243;28;20908;-72
2021/03/20 06:00:25;;;;;;;26.20;14.23;;;;;;;5.53;58.64;94569.88;5014566;28;20416;-72
2021/03/20 06:02:56;;;;;;;24.77;13.90;;;;;;;5.41;58.18;94567.16;5013188;28;20423;-72
2021/03/20 06:05:37;;;;;;;34.57;15.50;;;;;;;5.47;58.10;94562.44;5014278;28;20427;-71
2021/03/20 06:08:42;;;;;;;30.57;16.43;;;;;;;5.54;58.40;94558.19;5013408;28;20423;-71
2021/03/20 06:11:34;;;;;;;25.73;14.10;;;;;;;5.53;58.94;94554.00;4976134;28;20491;-71
2021/03/20 06:14:57;;;;;;;30.00;15.30;;;;;;;5.25;60.22;94552.88;4988463;28;20480;-71
2021/03/20 06:17:44;;;;;;;28.03;15.00;;;;;;;5.48;59.72;94556.03;4877811;29;20425;-71
2021/03/20 06:20:18;;;;;;;29.33;16.43;;;;;;;5.40;59.52;94557.66;4877903;29;20422;-70
2021/03/20 06:22:46;;;;;;;28.30;16.57;;;;;;;5.32;60.04;94561.88;4877954;29;20830;-72
2021/03/20 06:25:21;;;;;;;27.97;15.00;;;;;;;5.48;59.26;94561.34;4877865;29;20937;-71
2021/03/20 06:27:49;;;;;;;28.50;15.33;;;;;;;5.50;59.95;94559.13;4877796;29;20458;-72
2021/03/20 06:30:33;;;;;;;29.02;15.13;;;;;;;5.52;59.33;94557.75;4862198;29;20433;-71
2021/03/20 06:33:28;;;;;;;28.95;16.20;;;;;;;5.60;58.96;94560.66;4862259;29;20225;-72
2021/03/20 06:36:03;;;;;;;26.27;14.50;;;;;;;5.54;59.41;94562.69;4875397;29;20741;-71
2021/03/20 06:38:40;;;;;;;29.42;15.77;;;;;;;5.46;59.88;94560.91;4877552;29;21056;-73
2021/03/20 06:41:25;;;;;;;27.10;15.18;;;;;;;5.45;59.30;94554.81;4876434;29;20216;-72
2021/03/20 06:43:54;;;;;;;25.83;15.52;;;;;;;5.49;59.48;94566.31;4877163;29;20272;-72
2021/03/20 06:46:25;;;;;;;29.17;15.80;;;;;;;5.43;59.66;94553.56;4878284;29;20186;-72
2021/03/20 06:48:50;;;;;;;29.73;16.20;;;;;;;5.37;59.90;94563.56;4872363;29;20434;-72
2021/03/20 06:51:16;;;;;;;34.10;17.57;;;;;;;5.41;60.58;94566.38;4895535;29;20468;-72
2021/03/20 06:53:57;;;;;;;30.40;18.43;;;;;;;5.31;61.40;94564.84;4958426;28;20236;-73
2021/03/20 06:56:22;;;;;;;34.45;17.20;;;;;;;5.26;61.79;94565.03;5013607;28;20189;-73
2021/03/20 06:58:48;;;;;;;33.67;16.90;;;;;;;5.39;60.85;94568.53;4995725;28;20187;-73
2021/03/20 07:01:24;;;;;;;31.83;16.77;;;;;;;5.46;60.95;94563.53;5013496;28;20223;-73
2021/03/20 07:04:28;;;;;;;29.20;15.27;;;;;;;5.45;60.37;94569.94;5011967;28;20177;-73
2021/03/20 07:07:16;;;;;;;33.90;16.37;;;;;;;5.44;61.61;94571.78;5005025;28;20189;-72
2021/03/20 07:09:47;;;;;;;33.92;16.00;;;;;;;5.60;60.74;94574.66;5012167;28;20485;-72
2021/03/20 07:12:23;;;;;;;26.83;15.47;;;;;;;5.66;60.79;94572.59;5012781;28;20181;-72
2021/03/20 07:14:56;;;;;;;30.07;16.73;;;;;;;5.69;60.72;94570.09;5013144;28;20419;-73
2021/03/20 07:17:25;;;;;;;34.42;16.75;;;;;;;5.75;61.13;94568.81;5012852;28;20458;-73
2021/03/20 07:20:11;;;;;;;24.58;14.02;;;;;;;5.60;61.12;94568.59;5013091;28;20186;-73
2021/03/20 07:22:50;;;;;;;23.88;13.82;;;;;;;5.62;60.72;94574.38;5011375;28;20193;-73
2021/03/20 07:25:43;;;;;;;23.58;13.77;;;;;;;5.38;60.78;94561.69;5011861;28;20185;-73
2021/03/20 07:28:14;;;;;;;25.53;13.90;;;;;;;5.33;61.51;94570.59;4996036;28;20184;-73
2021/03/20 07:30:49;;;;;;;23.83;12.77;;;;;;;5.36;61.35;94572.63;5012655;28;20997;-74
2021/03/20 07:33:25;;;;;;;27.20;15.13;;;;;;;5.33;60.87;94573.25;5011382;28;20208;-72
2021/03/20 07:35:50;;;;;;;21.23;13.07;;;;;;;5.21;61.17;94567.84;5012736;28;20188;-73
2021/03/20 07:38:23;;;;;;;22.87;12.37;;;;;;;4.90;61.78;94573.44;5012694;28;20663;-74
2021/03/20 07:40:48;;;;;;;20.83;12.93;;;;;;;5.03;62.05;94572.44;5007899;28;20185;-72
2021/03/20 07:43:19;;;;;;;20.93;13.07;;;;;;;5.21;61.67;94568.63;5007583;28;20430;-73
2021/03/20 07:45:47;;;;;;;23.90;12.70;;;;;;;5.21;61.75;94565.97;5011804;28;20169;-73
2021/03/20 07:48:19;;;;;;;22.58;13.40;;;;;;;5.28;62.20;94565.50;5010741;28;20463;-73
2021/03/20 07:50:58;;;;;;;26.70;14.00;;;;;;;5.42;61.87;94565.28;5010772;28;20174;-72
2021/03/20 07:53:23;;;;;;;22.02;13.20;;;;;;;5.65;61.85;94568.41;4996076;28;20232;-72
2021/03/20 07:56:07;;;;;;;24.93;12.97;;;;;;;5.46;62.20;94577.56;4994515;28;20192;-72
2021/03/20 07:58:45;;;;;;;21.43;12.87;;;;;;;5.52;60.51;94572.84;5027838;28;20268;-72
2021/03/20 08:01:23;;;;;;;21.27;11.88;;;;;;;5.45;60.92;94575.22;5026251;28;20432;-72
2021/03/20 08:03:54;;;;;;;22.52;13.45;;;;;;;5.18;62.15;94574.56;4999470;28;20266;-72
2021/03/20 08:06:27;;;;;;;22.85;13.15;;;;;;;5.36;61.57;94569.97;5008882;28;20187;-73
2021/03/20 08:09:28;;;;;;;24.77;14.82;;;;;;;5.42;61.59;94579.28;5007937;28;20213;-73
2021/03/20 08:11:59;;;;;;;24.15;14.63;;;;;;;5.41;61.38;94582.25;4949755;28;20178;-74
2021/03/20 08:14:47;;;;;;;22.67;13.63;;;;;;;5.33;61.59;94581.19;4951842;28;20601;-73
2021/03/20 08:17:17;;;;;;;27.15;15.43;;;;;;;5.39;61.54;94581.78;4928953;28;20447;-74
2021/03/20 08:19:43;;;;;;;25.95;14.48;;;;;;;5.36;62.58;94588.50;4937273;28;20231;-73
2021/03/20 08:22:43;;;;;;;30.37;15.80;;;;;;;5.23;63.96;94586.84;4932783;29;20744;-74
2021/03/20 08:25:38;;;;;;;29.07;16.10;;;;;;;5.46;64.01;94597.97;4967623;28;20183;-74
2021/03/20 08:28:25;;;;;;;31.55;16.20;;;;;;;5.60;63.52;94595.84;4913055;29;20472;-74
2021/03/20 08:31:22;;;;;;;24.38;14.48;;;;;;;5.53;63.19;94596.34;4912227;29;20250;-73
2021/03/20 08:34:16;;;;;;;24.20;13.60;;;;;;;5.65;63.31;94593.03;4884319;29;20643;-74
2021/03/20 08:36:59;;;;;;;25.38;13.80;;;;;;;5.80;63.48;94594.34;4909728;29;20192;-72
2021/03/20 08:39:43;;;;;;;26.17;15.15;;;;;;;5.68;64.66;94595.03;4913079;29;20719;-72
2021/03/20 08:42:27;;;;;;;31.35;16.95;;;;;;;5.27;67.82;94598.34;4913239;29;20192;-71
2021/03/20 08:45:13;;;;;;;25.33;13.97;;;;;;;5.42;65.16;94604.97;4916103;29;20185;-72
2021/03/20 08:47:47;;;;;;;26.67;16.15;;;;;;;5.51;66.41;94601.22;4951257;28;20445;-71
2021/03/20 08:50:21;;;;;;;27.67;15.13;;;;;;;5.65;65.41;94598.31;4951334;29;20203;-70
2021/03/20 08:53:01;;;;;;;31.92;15.35;;;;;;;5.82;65.36;94597.44;4950873;28;20216;-73
2021/03/20 08:55:36;;;;;;;28.40;15.35;;;;;;;5.91;65.07;94592.91;4951346;29;20190;-73
2021/03/20 08:58:04;;;;;;;30.13;17.10;;;;;;;5.98;63.79;94579.91;4935059;29;20182;-73
2021/03/20 09:00:50;;;;;;;31.67;16.37;;;;;;;6.09;64.07;94580.31;4935305;29;20416;-72
2021/03/20 09:03:17;;;;;;;32.20;17.20;;;;;;;6.04;64.81;94586.56;4951235;28;20513;-72
2021/03/20 09:05:58;;;;;;;29.73;16.43;;;;;;;6.32;67.98;94586.06;4990914;28;21065;-72
2021/03/20 09:08:33;;;;;;;24.40;13.50;;;;;;;8.83;68.24;94590.03;4990717;28;20448;-71
2021/03/20 09:11:22;;;;;;;23.97;14.20;;;;;;;9.39;54.51;94598.69;4995048;28;20415;-73
2021/03/20 09:13:54;;;;;;;22.77;13.43;;;;;;;8.11;55.44;94592.59;4995825;28;20533;-72
2021/03/20 09:16:25;;;;;;;22.30;13.73;;;;;;;7.16;59.21;94589.28;4978472;28;20482;-72
2021/03/20 09:18:50;;;;;;;30.50;16.47;;;;;;;7.21;59.52;94591.75;4995953;28;20508;-72
2021/03/20 09:21:16;;;;;;;27.13;14.77;;;;;;;7.25;58.77;94584.66;4995544;28;20460;-71
2021/03/20 09:23:46;;;;;;;23.00;13.53;;;;;;;6.78;59.54;94595.63;4978433;28;20169;-72
2021/03/20 09:26:34;;;;;;;26.60;14.57;;;;;;;6.74;60.85;94578.81;4994659;28;20569;-72
2021/03/20 09:29:15;;;;;;;23.90;14.47;;;;;;;6.53;61.93;94578.06;4994381;28;20792;-72
2021/03/20 09:31:49;;;;;;;23.63;13.53;;;;;;;6.50;62.76;94576.84;4994428;28;20511;-72
2021/03/20 09:34:30;;;;;;;27.43;14.77;;;;;;;6.45;63.90;94582.34;4995554;28;20499;-72
2021/03/20 09:36:55;;;;;;;29.90;15.23;;;;;;;6.14;67.33;94579.34;4995559;28;20907;-73
2021/03/20 09:39:44;;;;;;;25.50;14.00;;;;;;;6.11;66.34;94586.06;4995289;28;20500;-72
2021/03/20 09:42:36;;;;;;;21.87;12.93;;;;;;;6.26;64.82;94576.75;4995269;28;20173;-73
2021/03/20 09:45:07;;;;;;;23.67;12.83;;;;;;;6.21;64.72;94571.63;4991371;28;20458;-72
2021/03/20 09:47:32;;;;;;;19.83;12.77;;;;;;;6.26;64.50;94563.50;4994969;28;20433;-73
2021/03/20 09:50:05;;;;;;;22.90;13.10;;;;;;;6.29;65.34;94558.31;4994950;28;20413;-73
2021/03/20 09:52:38;;;;;;;19.47;11.57;;;;;;;6.22;64.64;94552.75;4993891;28;20197;-73
2021/03/20 09:55:31;;;;;;;24.07;12.93;;;;;;;6.26;65.96;94552.88;4993563;28;20828;-73
2021/03/20 09:58:01;;;;;;;21.07;13.30;;;;;;;6.14;65.92;94547.53;4993458;28;20487;-72
2021/03/20 10:00:53;;;;;;;24.47;14.30;;;;;;;6.04;66.70;94557.41;5003783;28;20442;-72
2021/03/20 10:03:42;;;;;;;22.67;11.93;;;;;;;6.15;65.65;94554.38;5013258;28;20945;-72
2021/03/20 10:06:16;;;;;;;21.83;12.77;;;;;;;6.16;66.27;94545.31;5013390;28;20420;-73
2021/03/20 10:08:48;;;;;;;20.43;12.20;;;;;;;6.25;65.77;94536.19;5012805;28;20473;-72
2021/03/20 10:11:33;;;;;;;18.20;10.67;;;;;;;6.33;64.83;94532.69;5013064;28;20423;-72
2021/03/20 10:13:59;;;;;;;20.80;12.03;;;;;;;6.33;65.99;94531.91;5014344;28;20505;-72
2021/03/20 10:16:26;;;;;;;18.90;12.57;;;;;;;6.33;65.35;94537.97;5014126;28;20435;-73
2021/03/20 10:18:56;;;;;;;21.17;12.93;;;;;;;6.34;68.13;94549.38;5013156;28;20415;-72
2021/03/20 10:21:28;;;;;;;16.93;10.93;;;;;;;6.45;63.88;94539.13;5012077;28;20479;-73
2021/03/20 10:23:57;;;;;;;16.93;10.70;;;;;;;6.39;63.43;94535.91;5013023;28;20416;-72
2021/03/20 10:26:42;;;;;;;17.97;10.67;;;;;;;6.28;63.88;94540.84;5012810;28;20443;-72
2021/03/20 10:29:17;;;;;;;16.67;10.30;;;;;;;6.38;63.27;94534.38;5013001;28;20557;-72
2021/03/20 10:31:47;;;;;;;18.07;10.57;;;;;;;6.46;63.72;94532.75;5013667;28;20797;-72
2021/03/20 10:34:17;;;;;;;20.87;11.00;;;;;;;6.38;62.94;94526.41;5013671;28;20993;-72
2021/03/20 10:36:45;;;;;;;19.87;10.30;;;;;;;6.31;62.50;94524.28;5012561;28;20420;-72
2021/03/20 10:39:33;;;;;;;16.00;10.73;;;;;;;6.24;63.66;94529.34;5012348;28;20515;-72
2021/03/20 10:42:24;;;;;;;20.73;10.73;;;;;;;6.36;62.52;94526.75;5013565;28;20966;-72
2021/03/20 10:44:56;;;;;;;15.23;10.20;;;;;;;6.30;62.78;94528.03;5012776;28;20421;-72
2021/03/20 10:47:28;;;;;;;16.60;9.47;;;;;;;6.18;63.02;94520.06;5012686;28;20423;-72
2021/03/20 10:50:49;;;;;;;19.77;10.40;;;;;;;6.35;63.55;94527.06;4996242;28;20818;-72
2021/03/20 10:53:21;;;;;;;18.00;11.30;;;;;;;6.53;62.96;94519.72;4933651;29;20491;-72
2021/03/20 10:55:52;;;;;;;22.10;12.80;;;;;;;6.57;63.50;94520.63;4918228;29;20431;-73
2021/03/20 10:58:26;;;;;;;18.60;11.60;;;;;;;6.73;62.92;94512.78;4917514;29;20432;-72
2021/03/20 11:00:52;;;;;;;21.17;12.67;;;;;;;6.61;64.41;94516.97;4918650;29;20522;-72
2021/03/20 11:03:42;;;;;;;16.80;10.83;;;;;;;6.73;64.49;94507.47;4933137;29;20522;-73
2021/03/20 11:06:18;;;;;;;19.50;12.47;;;;;;;6.91;65.12;94505.44;4934045;29;20184;-72
2021/03/20 11:08:45;;;;;;;16.47;10.00;;;;;;;6.72;63.16;94504.06;4933540;29;21005;-72
2021/03/20 11:11:13;;;;;;;17.83;11.50;;;;;;;6.76;63.36;94504.19;4917889;29;20817;-72
2021/03/20 11:13:41;;;;;;;16.83;10.73;;;;;;;6.90;63.33;94499.31;4933291;29;21041;-72
2021/03/20 11:16:12;;;;;;;15.00;9.50;;;;;;;6.74;62.36;94493.13;4933657;29;20857;-72
2021/03/20 11:18:46;;;;;;;16.97;10.70;;;;;;;6.72;63.68;94501.41;4901794;29;20443;-72
2021/03/20 11:21:30;;;;;;;19.83;11.83;;;;;;;6.69;63.71;94502.06;4933521;28;20419;-73
2021/03/20 11:24:00;;;;;;;16.33;11.17;;;;;;;6.60;65.45;94490.78;4933582;29;20887;-73
2021/03/20 11:26:30;;;;;;;19.33;10.63;;;;;;;6.41;64.46;94501.13;4933339;29;20951;-70
2021/03/20 11:28:55;;;;;;;16.57;10.90;;;;;;;6.50;65.34;94478.69;4952681;28;20555;-70
2021/03/20 11:31:21;;;;;;;19.13;10.27;;;;;;;6.43;65.24;94485.66;5011807;28;20416;-70
2021/03/20 11:33:46;;;;;;;16.20;10.60;;;;;;;6.41;65.53;94474.59;5011745;28;20584;-70
2021/03/20 11:36:19;;;;;;;19.07;12.07;;;;;;;6.31;65.91;94459.88;5011663;28;20176;-70
2021/03/20 11:38:45;;;;;;;18.15;11.23;;;;;;;6.29;66.34;94475.34;4995308;28;20177;-71
2021/03/20 11:41:10;;;;;;;16.60;10.97;;;;;;;6.40;66.43;94468.53;5011481;28;20243;-71
2021/03/20 11:43:45;;;;;;;17.80;11.07;;;;;;;6.40;66.39;94468.53;5012534;28;20420;-71
2021/03/20 11:46:32;;;;;;;18.10;11.47;;;;;;;6.42;67.02;94463.66;5012709;28;20169;-71
2021/03/20 11:48:59;;;;;;;19.27;11.53;;;;;;;6.50;66.70;94465.44;5011165;28;20419;-71
2021/03/20 11:51:28;;;;;;;17.03;10.77;;;;;;;6.54;65.16;94462.91;5011241;28;20412;-71
2021/03/20 11:54:04;;;;;;;19.27;10.50;;;;;;;6.45;65.48;94452.38;5089036;28;20517;-70
2021/03/20 11:56:32;;;;;;;13.67;9.03;;;;;;;6.56;64.64;94455.38;5088014;28;20565;-73
2021/03/20 11:59:02;;;;;;;15.07;9.67;;;;;;;6.52;64.72;94455.28;5054536;28;20561;-72
2021/03/20 12:01:34;;;;;;;14.20;9.50;;;;;;;6.47;64.87;94460.81;5071605;28;20424;-71
2021/03/20 12:04:23;;;;;;;14.13;9.53;;;;;;;6.39;64.37;94455.56;5088658;28;20416;-72